EST,Max TemperatureF,Mean TemperatureF,Min TemperatureF,Max Dew PointF,MeanDew PointF,Min DewpointF,Max Humidity, Mean Humidity, Min Humidity, Max Sea Level PressureIn, Mean Sea Level PressureIn, Min Sea Level PressureIn, Max VisibilityMiles, Mean VisibilityMiles, Min VisibilityMiles, Max Wind SpeedMPH, Mean Wind SpeedMPH, Max Gust SpeedMPH,PrecipitationIn, CloudCover, Events, WindDirDegrees
2012-12-1,29,20,11,27,18,8,100,89,77,30.67,30.57,30.49,10,5,1,15,5,17,0.02,8,Snow,171
2012-12-2,48,39,29,45,37,28,100,93,85,30.47,30.13,29.95,10,8,2,16,8,25,0.22,8,Rain,193
2012-12-3,49,42,35,45,37,33,93,86,79,30.32,30.18,29.94,10,10,10,21,6,29,0.01,8,,299
2012-12-4,50,43,36,48,40,34,100,91,82,30.31,30.14,29.89,10,9,5,15,7,21,0.07,8,Rain,186
2012-12-5,51,38,24,49,30,17,100,85,69,30.25,30.04,29.86,10,6,1,24,12,35,0.49,8,Rain-Snow,309
2012-12-6,31,25,18,20,16,14,92,75,58,30.43,30.33,30.19,10,10,6,16,4,23,T,3,Snow,314
2012-12-7,35,29,22,28,21,17,92,74,56,30.26,30.14,30.07,10,10,10,14,4,18,0.00,5,,188
2012-12-8,44,36,27,39,32,26,100,88,75,30.07,29.95,29.84,10,8,4,12,2,16,T,8,,192
2012-12-9,44,36,27,37,28,24,85,75,64,30.34,30.22,29.95,10,10,3,15,5,24,0.01,6,Snow,323
2012-12-10,44,36,28,43,35,25,100,93,85,30.12,29.76,29.50,10,6,1,21,7,29,0.84,8,Rain-Snow,196
2012-12-11,35,30,24,34,26,19,100,88,75,30.22,29.88,29.61,10,10,9,13,6,18,0.01,8,Rain-Snow,324
2012-12-12,35,26,17,24,20,16,92,76,59,30.43,30.34,30.21,10,10,10,12,2,17,0.00,4,,211
2012-12-13,37,29,21,26,23,17,100,76,52,30.50,30.41,30.25,10,10,8,7,0,10,0.00,3,,183
2012-12-14,40,29,18,29,24,17,100,77,54,30.27,30.18,30.10,10,9,6,16,4,23,0.00,5,,307
2012-12-15,31,23,14,23,13,-2,88,59,29,30.42,30.35,30.24,10,10,10,15,3,20,0.00,2,,339
2012-12-16,25,20,15,22,18,10,92,80,68,30.36,30.19,30.08,10,4,1,16,5,21,0.11,8,Snow,172
2012-12-17,32,29,25,31,28,21,100,92,84,30.12,29.97,29.86,10,3,0,12,5,17,0.22,8,Fog-Rain-Snow,193
2012-12-18,34,32,30,34,33,30,100,100,100,29.86,29.57,29.49,8,2,0,3,0,5,0.72,8,Fog-Rain-Snow,-1
2012-12-19,33,32,30,34,31,28,100,95,89,30.14,29.80,29.51,10,6,0,16,9,22,0.01,8,Fog-Rain-Snow,318
2012-12-20,32,31,29,27,26,25,92,82,72,30.27,30.16,30.00,10,10,6,16,5,22,0.00,8,,201
2012-12-21,45,38,31,43,32,27,100,88,75,29.97,29.48,28.97,10,4,1,25,12,38,0.53,8,Rain-Snow,153
2012-12-22,35,27,18,29,18,12,92,80,68,29.71,29.47,29.13,10,4,1,18,10,28,0.02,8,Snow,287
2012-12-23,29,20,10,27,20,8,92,77,62,29.87,29.77,29.65,10,5,0,22,6,29,0.03,8,Fog-Snow,287
2012-12-24,25,16,6,19,13,7,96,78,60,30.12,30.02,29.83,10,10,5,16,5,24,T,3,Snow,299
2012-12-25,23,14,4,18,13,2,100,90,80,30.38,30.13,30.02,10,6,0,9,2,12,0.07,5,Fog-Snow,323
2012-12-26,20,9,-2,18,9,-4,100,84,67,30.44,30.29,30.01,10,8,0,5,0,6,0.04,1,Fog-Snow,65
2012-12-27,25,22,18,24,20,17,100,96,91,30.03,29.74,29.61,10,2,0,14,6,21,0.97,8,Fog-Snow,335
2012-12-28,24,19,14,20,18,12,100,92,84,30.08,29.94,29.76,10,7,2,18,8,26,T,6,Snow,311
2012-12-29,20,13,5,19,16,4,100,94,88,30.08,29.81,29.56,10,3,0,6,1,8,0.22,7,Fog-Snow,349
2012-12-30,20,15,10,18,9,5,100,85,70,30.07,29.78,29.55,10,4,1,31,16,40,0.02,8,Snow,310
2012-12-31,29,21,13,25,18,9,91,80,69,30.08,29.90,29.65,10,8,2,28,6,39,0.02,8,Snow,257